createdAt,value
2023-03-23T15:58:13.845Z,96.03
2023-03-23T16:00:43.046Z,96.16
2023-03-23T16:03:18.106Z,97.15
2023-03-23T16:05:45.301Z,97.09
2023-03-23T16:08:12.483Z,98.80
2023-03-23T16:10:39.063Z,99.31
2023-03-23T16:13:06.213Z,100.00
2023-03-23T16:15:33.242Z,100.00
2023-03-23T16:18:00.007Z,99.71
2023-03-23T16:20:29.605Z,98.06
2023-03-23T16:22:56.547Z,99.52
2023-03-23T16:25:23.252Z,99.17
2023-03-23T16:27:52.221Z,99.41
2023-03-23T16:30:19.370Z,100.00
2023-03-23T16:32:47.075Z,100.00
2023-03-23T16:35:15.414Z,100.00
2023-03-23T16:37:50.617Z,100.00
2023-03-23T16:40:18.573Z,100.00
2023-03-23T16:42:45.289Z,99.76
2023-03-23T16:45:12.926Z,100.00
2023-03-23T16:47:40.383Z,100.00
2023-03-23T16:50:12.111Z,100.00
2023-03-23T16:52:46.232Z,100.00
2023-03-23T16:55:16.349Z,100.00
2023-03-23T16:57:43.550Z,100.00
2023-03-23T17:00:20.033Z,100.00
2023-03-23T17:02:52.045Z,100.00
2023-03-23T17:05:22.779Z,100.00
2023-03-23T17:07:49.374Z,100.00
2023-03-23T17:10:16.865Z,100.00
2023-03-23T17:12:44.222Z,100.00
2023-03-23T17:15:11.453Z,100.00
2023-03-23T17:17:38.186Z,100.00
2023-03-23T17:20:06.469Z,100.00
2023-03-23T17:22:33.136Z,100.00
2023-03-23T17:24:59.928Z,100.00
2023-03-23T17:27:27.366Z,100.00
2023-03-23T17:29:53.944Z,100.00
2023-03-23T17:32:21.838Z,100.00
2023-03-23T17:34:48.488Z,100.00
2023-03-23T17:37:15.653Z,100.00
2023-03-23T17:39:44.450Z,100.00
2023-03-23T17:42:11.853Z,100.00
2023-03-23T17:44:38.598Z,100.00
2023-03-23T17:47:08.261Z,100.00
2023-03-23T17:49:35.427Z,100.00
2023-03-23T17:52:07.924Z,100.00
2023-03-23T17:54:34.602Z,100.00
2023-03-23T17:57:03.902Z,100.00
2023-03-23T17:59:31.100Z,100.00
2023-03-23T18:01:58.070Z,100.00
2023-03-23T18:04:26.990Z,100.00
2023-03-23T18:06:57.719Z,100.00
2023-03-23T18:09:25.705Z,100.00
2023-03-23T18:11:53.066Z,100.00
2023-03-23T18:14:20.304Z,100.00
2023-03-23T18:17:41.807Z,100.00
2023-03-23T18:20:09.157Z,100.00
2023-03-23T18:22:36.276Z,100.00
2023-03-23T18:25:05.206Z,100.00
2023-03-23T18:27:32.479Z,100.00
2023-03-23T18:29:59.177Z,100.00
2023-03-23T18:32:27.998Z,100.00
2023-03-23T18:34:56.022Z,100.00
2023-03-23T18:37:22.872Z,100.00
2023-03-23T18:39:49.557Z,100.00
2023-03-23T18:42:16.298Z,100.00
2023-03-23T18:44:43.156Z,100.00
2023-03-23T18:47:09.804Z,100.00
2023-03-23T18:49:36.915Z,100.00
2023-03-23T18:52:04.446Z,100.00
2023-03-23T18:54:34.774Z,100.00
2023-03-23T18:57:03.084Z,100.00
2023-03-23T18:59:34.668Z,100.00
2023-03-23T19:02:07.701Z,100.00
2023-03-23T19:04:34.469Z,100.00
2023-03-23T19:07:01.980Z,100.00
2023-03-23T19:09:30.441Z,100.00
2023-03-23T19:11:57.276Z,100.00
2023-03-23T19:14:24.131Z,100.00
2023-03-23T19:16:52.375Z,100.00
2023-03-23T19:19:19.921Z,100.00
2023-03-23T19:21:47.285Z,100.00
2023-03-23T19:24:14.317Z,100.00
2023-03-23T19:26:43.467Z,100.00
2023-03-23T19:31:45.740Z,100.00
2023-03-23T19:34:14.172Z,100.00
2023-03-23T19:36:41.108Z,100.00
2023-03-23T19:39:08.858Z,100.00
2023-03-23T19:41:36.333Z,100.00
2023-03-23T19:44:04.128Z,100.00
2023-03-23T19:46:32.089Z,100.00
2023-03-23T19:48:59.430Z,100.00
2023-03-23T19:51:27.592Z,100.00
2023-03-23T19:53:57.146Z,100.00
2023-03-23T19:56:24.873Z,100.00
2023-03-23T19:58:52.352Z,100.00
2023-03-23T20:01:19.455Z,100.00
2023-03-23T20:03:46.588Z,100.00
2023-03-23T20:06:15.200Z,100.00
2023-03-23T20:08:44.725Z,100.00
2023-03-23T20:11:14.418Z,100.00
2023-03-23T20:13:41.614Z,100.00
2023-03-23T20:16:09.272Z,100.00
2023-03-23T20:18:37.921Z,100.00
2023-03-23T20:21:07.422Z,100.00
2023-03-23T20:23:38.466Z,100.00
2023-03-23T20:26:06.911Z,100.00
2023-03-23T20:28:33.979Z,100.00
2023-03-23T20:31:21.126Z,100.00
2023-03-23T20:34:02.502Z,100.00
2023-03-23T20:36:57.799Z,100.00
2023-03-23T20:39:26.584Z,100.00
2023-03-23T20:41:54.717Z,100.00
2023-03-23T20:44:25.337Z,100.00
2023-03-23T20:46:53.167Z,100.00
2023-03-23T20:49:20.905Z,100.00
2023-03-23T20:51:48.556Z,100.00
2023-03-23T20:54:16.258Z,100.00
2023-03-23T20:56:48.283Z,100.00
2023-03-23T20:59:15.783Z,100.00
2023-03-23T21:01:42.845Z,100.00
2023-03-23T21:04:15.199Z,100.00
2023-03-23T21:06:43.787Z,100.00
2023-03-23T21:09:10.481Z,100.00
2023-03-23T21:11:37.361Z,100.00
2023-03-23T21:14:05.215Z,100.00
2023-03-23T21:16:32.063Z,100.00
2023-03-23T21:18:59.020Z,100.00
2023-03-23T21:21:27.410Z,100.00
2023-03-23T21:23:55.641Z,100.00
2023-03-23T21:26:25.101Z,100.00
2023-03-23T21:28:54.258Z,100.00
2023-03-23T21:31:23.474Z,100.00
2023-03-23T21:33:50.499Z,100.00
2023-03-23T21:36:17.291Z,100.00
2023-03-23T21:38:44.803Z,100.00
2023-03-23T21:41:14.381Z,100.00
2023-03-23T21:43:44.465Z,100.00
2023-03-23T21:46:14.118Z,100.00
2023-03-23T21:48:41.588Z,100.00
2023-03-23T21:51:10.083Z,100.00
2023-03-23T21:53:37.189Z,100.00
2023-03-23T21:56:09.685Z,100.00
2023-03-23T21:58:37.856Z,100.00
2023-03-23T22:01:05.449Z,100.00
2023-03-23T22:03:33.260Z,100.00
2023-03-23T22:06:09.575Z,100.00
2023-03-23T22:08:37.576Z,100.00
2023-03-23T22:11:13.395Z,100.00
2023-03-23T22:13:41.523Z,100.00
2023-03-23T22:16:14.835Z,100.00
2023-03-23T22:18:43.414Z,100.00
2023-03-23T22:21:11.218Z,100.00
2023-03-23T22:23:39.145Z,100.00
2023-03-23T22:26:07.632Z,100.00
2023-03-23T22:28:37.151Z,100.00
2023-03-23T22:31:13.637Z,100.00
2023-03-23T22:33:40.543Z,100.00
2023-03-23T22:36:07.818Z,100.00
2023-03-23T22:38:42.189Z,100.00
2023-03-23T22:41:11.051Z,100.00
2023-03-23T22:43:38.068Z,100.00
2023-03-23T22:46:05.778Z,100.00
2023-03-23T22:48:32.739Z,100.00
2023-03-23T22:50:59.714Z,100.00
2023-03-23T22:53:26.862Z,100.00
2023-03-23T22:55:55.761Z,100.00
2023-03-23T22:58:23.882Z,100.00
2023-03-23T23:00:57.003Z,100.00
2023-03-23T23:03:23.903Z,100.00
2023-03-23T23:05:52.010Z,100.00
2023-03-23T23:08:19.329Z,100.00
2023-03-23T23:10:48.920Z,100.00
2023-03-23T23:13:15.833Z,100.00
2023-03-23T23:15:45.734Z,100.00
2023-03-23T23:18:12.612Z,100.00
2023-03-23T23:20:41.090Z,100.00
2023-03-23T23:23:08.629Z,100.00
2023-03-23T23:25:35.794Z,100.00
2023-03-23T23:28:04.065Z,100.00
2023-03-23T23:30:31.553Z,100.00
2023-03-23T23:32:58.937Z,100.00
2023-03-23T23:35:26.473Z,100.00
2023-03-23T23:37:53.727Z,100.00
2023-03-23T23:40:20.763Z,100.00
2023-03-23T23:42:49.891Z,100.00
2023-03-23T23:45:17.548Z,100.00
2023-03-23T23:47:45.652Z,100.00
2023-03-23T23:50:14.115Z,100.00
2023-03-23T23:52:42.633Z,100.00
2023-03-23T23:55:11.065Z,100.00
2023-03-23T23:57:38.004Z,100.00
